sensor_id;sensor_type;location;lat;lon;timestamp;P1;durP1;ratioP1;P2;durP2;ratioP2
1545;SDS011;766;51.502;9.752;2023-06-10T00:01:24;5.68;;;3.92;;
1545;SDS011;766;51.502;9.752;2023-06-10T00:03:54;4.20;;;3.50;;
1545;SDS011;766;51.502;9.752;2023-06-10T00:06:22;4.45;;;3.63;;
1545;SDS011;766;51.502;9.752;2023-06-10T00:08:51;5.63;;;3.95;;
1545;SDS011;766;51.502;9.752;2023-06-10T00:11:20;4.70;;;3.80;;
1545;SDS011;766;51.502;9.752;2023-06-10T00:13:49;4.72;;;3.67;;
1545;SDS011;766;51.502;9.752;2023-06-10T00:16:19;5.95;;;3.67;;
1545;SDS011;766;51.502;9.752;2023-06-10T00:18:49;5.82;;;3.70;;
1545;SDS011;766;51.502;9.752;2023-06-10T00:21:18;5.72;;;3.90;;
1545;SDS011;766;51.502;9.752;2023-06-10T00:23:46;6.18;;;4.20;;
1545;SDS011;766;51.502;9.752;2023-06-10T00:26:16;5.60;;;3.78;;
1545;SDS011;766;51.502;9.752;2023-06-10T00:28:44;4.55;;;3.83;;
1545;SDS011;766;51.502;9.752;2023-06-10T00:31:12;6.28;;;3.70;;
1545;SDS011;766;51.502;9.752;2023-06-10T00:33:41;4.63;;;3.50;;
1545;SDS011;766;51.502;9.752;2023-06-10T00:36:11;5.25;;;4.13;;
1545;SDS011;766;51.502;9.752;2023-06-10T00:38:39;4.90;;;3.80;;
1545;SDS011;766;51.502;9.752;2023-06-10T00:41:07;7.18;;;3.80;;
1545;SDS011;766;51.502;9.752;2023-06-10T00:43:36;6.60;;;3.92;;
1545;SDS011;766;51.502;9.752;2023-06-10T00:46:04;7.78;;;3.60;;
1545;SDS011;766;51.502;9.752;2023-06-10T00:48:33;5.53;;;3.55;;
1545;SDS011;766;51.502;9.752;2023-06-10T00:51:02;6.80;;;3.80;;
1545;SDS011;766;51.502;9.752;2023-06-10T00:53:32;4.60;;;3.67;;
1545;SDS011;766;51.502;9.752;2023-06-10T00:56:01;3.97;;;3.58;;
1545;SDS011;766;51.502;9.752;2023-06-10T00:58:29;4.15;;;3.38;;
1545;SDS011;766;51.502;9.752;2023-06-10T01:00:58;6.88;;;3.75;;
1545;SDS011;766;51.502;9.752;2023-06-10T01:03:27;4.63;;;3.53;;
1545;SDS011;766;51.502;9.752;2023-06-10T01:05:57;5.30;;;3.88;;
1545;SDS011;766;51.502;9.752;2023-06-10T01:08:33;5.65;;;3.40;;
1545;SDS011;766;51.502;9.752;2023-06-10T01:11:08;5.50;;;3.72;;
1545;SDS011;766;51.502;9.752;2023-06-10T01:13:45;5.82;;;3.75;;
1545;SDS011;766;51.502;9.752;2023-06-10T01:16:17;7.57;;;3.83;;
1545;SDS011;766;51.502;9.752;2023-06-10T01:18:46;6.20;;;3.42;;
1545;SDS011;766;51.502;9.752;2023-06-10T01:21:19;7.47;;;3.83;;
1545;SDS011;766;51.502;9.752;2023-06-10T01:23:51;5.50;;;4.00;;
1545;SDS011;766;51.502;9.752;2023-06-10T01:26:23;4.50;;;3.90;;
1545;SDS011;766;51.502;9.752;2023-06-10T01:28:57;5.78;;;3.80;;
1545;SDS011;766;51.502;9.752;2023-06-10T01:31:30;4.30;;;3.47;;
1545;SDS011;766;51.502;9.752;2023-06-10T01:34:05;6.00;;;4.00;;
1545;SDS011;766;51.502;9.752;2023-06-10T01:36:39;4.53;;;3.35;;
1545;SDS011;766;51.502;9.752;2023-06-10T01:39:09;4.35;;;3.47;;
1545;SDS011;766;51.502;9.752;2023-06-10T01:41:38;5.25;;;3.75;;
1545;SDS011;766;51.502;9.752;2023-06-10T01:44:08;5.78;;;3.95;;
1545;SDS011;766;51.502;9.752;2023-06-10T01:46:36;7.25;;;3.65;;
1545;SDS011;766;51.502;9.752;2023-06-10T01:49:05;4.93;;;3.70;;
1545;SDS011;766;51.502;9.752;2023-06-10T01:51:33;6.35;;;3.70;;
1545;SDS011;766;51.502;9.752;2023-06-10T01:54:04;5.18;;;3.63;;
1545;SDS011;766;51.502;9.752;2023-06-10T01:56:32;10.93;;;4.28;;
1545;SDS011;766;51.502;9.752;2023-06-10T01:59:01;5.78;;;3.85;;
1545;SDS011;766;51.502;9.752;2023-06-10T02:01:29;8.77;;;3.97;;
1545;SDS011;766;51.502;9.752;2023-06-10T02:03:58;3.65;;;3.28;;
1545;SDS011;766;51.502;9.752;2023-06-10T02:06:26;6.50;;;4.15;;
1545;SDS011;766;51.502;9.752;2023-06-10T02:08:54;5.15;;;3.47;;
1545;SDS011;766;51.502;9.752;2023-06-10T02:11:25;6.43;;;3.85;;
1545;SDS011;766;51.502;9.752;2023-06-10T02:13:53;5.95;;;3.28;;
1545;SDS011;766;51.502;9.752;2023-06-10T02:16:21;5.70;;;3.78;;
1545;SDS011;766;51.502;9.752;2023-06-10T02:18:50;10.27;;;3.90;;
1545;SDS011;766;51.502;9.752;2023-06-10T02:21:22;6.82;;;3.72;;
1545;SDS011;766;51.502;9.752;2023-06-10T02:23:50;8.10;;;3.92;;
1545;SDS011;766;51.502;9.752;2023-06-10T02:26:19;7.70;;;3.92;;
1545;SDS011;766;51.502;9.752;2023-06-10T02:28:49;4.28;;;3.28;;
1545;SDS011;766;51.502;9.752;2023-06-10T02:31:17;4.68;;;3.45;;
1545;SDS011;766;51.502;9.752;2023-06-10T02:33:46;7.97;;;3.58;;
1545;SDS011;766;51.502;9.752;2023-06-10T02:36:14;7.85;;;3.50;;
1545;SDS011;766;51.502;9.752;2023-06-10T02:38:43;4.97;;;4.10;;
1545;SDS011;766;51.502;9.752;2023-06-10T02:41:11;6.07;;;3.70;;
1545;SDS011;766;51.502;9.752;2023-06-10T02:43:40;7.20;;;3.80;;
1545;SDS011;766;51.502;9.752;2023-06-10T02:46:10;11.18;;;4.13;;
1545;SDS011;766;51.502;9.752;2023-06-10T02:48:42;5.45;;;3.83;;
1545;SDS011;766;51.502;9.752;2023-06-10T02:51:11;6.55;;;3.67;;
1545;SDS011;766;51.502;9.752;2023-06-10T02:53:40;6.60;;;3.85;;
1545;SDS011;766;51.502;9.752;2023-06-10T02:56:08;6.28;;;3.60;;
1545;SDS011;766;51.502;9.752;2023-06-10T02:58:39;6.97;;;3.92;;
1545;SDS011;766;51.502;9.752;2023-06-10T03:01:07;5.78;;;3.92;;
1545;SDS011;766;51.502;9.752;2023-06-10T03:03:37;5.72;;;3.83;;
1545;SDS011;766;51.502;9.752;2023-06-10T03:06:09;8.68;;;3.63;;
1545;SDS011;766;51.502;9.752;2023-06-10T03:08:39;7.47;;;4.05;;
1545;SDS011;766;51.502;9.752;2023-06-10T03:11:07;8.57;;;3.60;;
1545;SDS011;766;51.502;9.752;2023-06-10T03:13:38;6.75;;;3.38;;
1545;SDS011;766;51.502;9.752;2023-06-10T03:16:07;7.90;;;3.75;;
1545;SDS011;766;51.502;9.752;2023-06-10T03:18:37;6.80;;;4.35;;
1545;SDS011;766;51.502;9.752;2023-06-10T03:21:05;6.65;;;4.35;;
1545;SDS011;766;51.502;9.752;2023-06-10T03:23:34;8.73;;;4.63;;
1545;SDS011;766;51.502;9.752;2023-06-10T03:26:04;7.15;;;4.18;;
1545;SDS011;766;51.502;9.752;2023-06-10T03:28:33;8.13;;;3.97;;
1545;SDS011;766;51.502;9.752;2023-06-10T03:31:02;7.88;;;4.18;;
1545;SDS011;766;51.502;9.752;2023-06-10T03:33:30;6.30;;;3.90;;
1545;SDS011;766;51.502;9.752;2023-06-10T03:36:00;7.93;;;4.40;;
1545;SDS011;766;51.502;9.752;2023-06-10T03:38:28;7.93;;;3.90;;
1545;SDS011;766;51.502;9.752;2023-06-10T03:40:58;6.07;;;3.70;;
1545;SDS011;766;51.502;9.752;2023-06-10T03:43:27;6.78;;;4.00;;
1545;SDS011;766;51.502;9.752;2023-06-10T03:45:58;8.88;;;4.07;;
1545;SDS011;766;51.502;9.752;2023-06-10T03:48:31;6.38;;;3.65;;
1545;SDS011;766;51.502;9.752;2023-06-10T03:51:01;4.45;;;3.45;;
1545;SDS011;766;51.502;9.752;2023-06-10T03:53:29;8.45;;;4.28;;
1545;SDS011;766;51.502;9.752;2023-06-10T03:55:58;5.55;;;3.58;;
1545;SDS011;766;51.502;9.752;2023-06-10T03:58:26;6.50;;;3.72;;
1545;SDS011;766;51.502;9.752;2023-06-10T04:00:55;7.32;;;3.53;;
1545;SDS011;766;51.502;9.752;2023-06-10T04:03:29;7.47;;;4.03;;
1545;SDS011;766;51.502;9.752;2023-06-10T04:05:58;5.85;;;3.85;;
1545;SDS011;766;51.502;9.752;2023-06-10T04:08:29;7.28;;;4.30;;
1545;SDS011;766;51.502;9.752;2023-06-10T04:10:57;4.88;;;3.53;;
1545;SDS011;766;51.502;9.752;2023-06-10T04:13:26;7.53;;;3.33;;
1545;SDS011;766;51.502;9.752;2023-06-10T04:15:54;8.35;;;4.15;;
1545;SDS011;766;51.502;9.752;2023-06-10T04:18:23;7.22;;;4.07;;
1545;SDS011;766;51.502;9.752;2023-06-10T04:20:51;4.68;;;3.45;;
1545;SDS011;766;51.502;9.752;2023-06-10T04:23:21;6.95;;;3.97;;
1545;SDS011;766;51.502;9.752;2023-06-10T04:25:50;6.13;;;4.00;;
1545;SDS011;766;51.502;9.752;2023-06-10T04:28:18;6.38;;;3.92;;
1545;SDS011;766;51.502;9.752;2023-06-10T04:30:46;7.55;;;4.25;;
1545;SDS011;766;51.502;9.752;2023-06-10T04:33:15;7.07;;;4.03;;
1545;SDS011;766;51.502;9.752;2023-06-10T04:35:44;8.63;;;4.20;;
1545;SDS011;766;51.502;9.752;2023-06-10T04:38:14;8.10;;;4.10;;
1545;SDS011;766;51.502;9.752;2023-06-10T04:40:44;9.95;;;4.00;;
1545;SDS011;766;51.502;9.752;2023-06-10T04:43:12;8.70;;;3.95;;
1545;SDS011;766;51.502;9.752;2023-06-10T04:45:41;9.73;;;3.95;;
1545;SDS011;766;51.502;9.752;2023-06-10T04:48:11;6.07;;;4.10;;
1545;SDS011;766;51.502;9.752;2023-06-10T04:50:40;6.97;;;3.63;;
1545;SDS011;766;51.502;9.752;2023-06-10T04:53:08;6.80;;;3.90;;
1545;SDS011;766;51.502;9.752;2023-06-10T04:55:36;5.28;;;3.50;;
1545;SDS011;766;51.502;9.752;2023-06-10T04:58:06;7.93;;;3.72;;
1545;SDS011;766;51.502;9.752;2023-06-10T05:00:35;6.63;;;3.78;;
1545;SDS011;766;51.502;9.752;2023-06-10T05:03:06;6.70;;;4.13;;
1545;SDS011;766;51.502;9.752;2023-06-10T05:05:34;5.93;;;3.35;;
1545;SDS011;766;51.502;9.752;2023-06-10T05:08:03;5.75;;;3.28;;
1545;SDS011;766;51.502;9.752;2023-06-10T05:10:34;6.25;;;3.65;;
1545;SDS011;766;51.502;9.752;2023-06-10T05:13:02;7.22;;;3.30;;
1545;SDS011;766;51.502;9.752;2023-06-10T05:15:32;4.60;;;3.58;;
1545;SDS011;766;51.502;9.752;2023-06-10T05:18:00;5.53;;;3.63;;
1545;SDS011;766;51.502;9.752;2023-06-10T05:20:30;9.90;;;3.70;;
1545;SDS011;766;51.502;9.752;2023-06-10T05:22:59;8.77;;;3.50;;
1545;SDS011;766;51.502;9.752;2023-06-10T05:25:30;7.90;;;3.70;;
1545;SDS011;766;51.502;9.752;2023-06-10T05:27:58;7.45;;;3.63;;
1545;SDS011;766;51.502;9.752;2023-06-10T05:30:27;7.00;;;4.00;;
1545;SDS011;766;51.502;9.752;2023-06-10T05:32:57;6.78;;;3.65;;
1545;SDS011;766;51.502;9.752;2023-06-10T05:35:25;9.52;;;3.80;;
1545;SDS011;766;51.502;9.752;2023-06-10T05:37:53;6.43;;;3.60;;
1545;SDS011;766;51.502;9.752;2023-06-10T05:40:22;6.10;;;3.80;;
1545;SDS011;766;51.502;9.752;2023-06-10T05:42:50;8.88;;;4.78;;
1545;SDS011;766;51.502;9.752;2023-06-10T05:45:19;12.13;;;4.35;;
1545;SDS011;766;51.502;9.752;2023-06-10T05:47:47;6.75;;;3.90;;
1545;SDS011;766;51.502;9.752;2023-06-10T05:50:17;7.18;;;4.35;;
1545;SDS011;766;51.502;9.752;2023-06-10T05:52:46;7.25;;;3.40;;
1545;SDS011;766;51.502;9.752;2023-06-10T05:55:14;6.45;;;3.45;;
1545;SDS011;766;51.502;9.752;2023-06-10T05:57:43;10.15;;;4.85;;
1545;SDS011;766;51.502;9.752;2023-06-10T06:00:12;8.95;;;4.70;;
1545;SDS011;766;51.502;9.752;2023-06-10T06:02:41;7.53;;;4.57;;
1545;SDS011;766;51.502;9.752;2023-06-10T06:05:12;9.18;;;3.60;;
1545;SDS011;766;51.502;9.752;2023-06-10T06:07:47;9.15;;;4.25;;
1545;SDS011;766;51.502;9.752;2023-06-10T06:10:16;8.70;;;4.72;;
1545;SDS011;766;51.502;9.752;2023-06-10T06:12:45;8.75;;;4.10;;
1545;SDS011;766;51.502;9.752;2023-06-10T06:15:13;7.43;;;3.95;;
1545;SDS011;766;51.502;9.752;2023-06-10T06:17:42;5.75;;;3.50;;
1545;SDS011;766;51.502;9.752;2023-06-10T06:20:11;5.60;;;4.20;;
1545;SDS011;766;51.502;9.752;2023-06-10T06:22:40;7.57;;;3.63;;
1545;SDS011;766;51.502;9.752;2023-06-10T06:25:10;4.75;;;3.28;;
1545;SDS011;766;51.502;9.752;2023-06-10T06:27:40;6.82;;;3.50;;
1545;SDS011;766;51.502;9.752;2023-06-10T06:30:08;5.85;;;3.45;;
1545;SDS011;766;51.502;9.752;2023-06-10T06:32:38;5.80;;;3.80;;
1545;SDS011;766;51.502;9.752;2023-06-10T06:35:06;5.53;;;3.33;;
1545;SDS011;766;51.502;9.752;2023-06-10T06:37:35;8.65;;;3.63;;
1545;SDS011;766;51.502;9.752;2023-06-10T06:40:04;6.93;;;3.35;;
1545;SDS011;766;51.502;9.752;2023-06-10T06:42:35;4.65;;;3.20;;
1545;SDS011;766;51.502;9.752;2023-06-10T06:45:32;9.23;;;3.67;;
1545;SDS011;766;51.502;9.752;2023-06-10T06:48:00;7.25;;;3.42;;
1545;SDS011;766;51.502;9.752;2023-06-10T06:50:29;6.40;;;3.63;;
1545;SDS011;766;51.502;9.752;2023-06-10T06:52:57;3.92;;;2.80;;
1545;SDS011;766;51.502;9.752;2023-06-10T06:55:26;5.22;;;3.17;;
1545;SDS011;766;51.502;9.752;2023-06-10T06:57:56;5.80;;;3.30;;
1545;SDS011;766;51.502;9.752;2023-06-10T07:00:29;5.82;;;3.35;;
1545;SDS011;766;51.502;9.752;2023-06-10T07:02:58;4.53;;;3.40;;
1545;SDS011;766;51.502;9.752;2023-06-10T07:05:28;5.80;;;3.42;;
1545;SDS011;766;51.502;9.752;2023-06-10T07:07:57;5.57;;;3.40;;
1545;SDS011;766;51.502;9.752;2023-06-10T07:10:25;7.45;;;3.40;;
1545;SDS011;766;51.502;9.752;2023-06-10T07:12:54;6.40;;;3.58;;
1545;SDS011;766;51.502;9.752;2023-06-10T07:15:24;6.28;;;3.40;;
1545;SDS011;766;51.502;9.752;2023-06-10T07:17:54;4.93;;;3.38;;
1545;SDS011;766;51.502;9.752;2023-06-10T07:20:22;4.85;;;3.65;;
1545;SDS011;766;51.502;9.752;2023-06-10T07:22:50;6.70;;;3.25;;
1545;SDS011;766;51.502;9.752;2023-06-10T07:25:20;7.13;;;3.50;;
1545;SDS011;766;51.502;9.752;2023-06-10T07:27:49;6.20;;;3.30;;
1545;SDS011;766;51.502;9.752;2023-06-10T07:30:17;3.40;;;3.05;;
1545;SDS011;766;51.502;9.752;2023-06-10T07:32:47;4.63;;;3.47;;
1545;SDS011;766;51.502;9.752;2023-06-10T07:35:19;4.95;;;3.17;;
1545;SDS011;766;51.502;9.752;2023-06-10T07:37:48;8.93;;;4.22;;
1545;SDS011;766;51.502;9.752;2023-06-10T07:40:17;5.45;;;3.30;;
1545;SDS011;766;51.502;9.752;2023-06-10T07:42:45;5.30;;;2.97;;
1545;SDS011;766;51.502;9.752;2023-06-10T07:45:13;5.75;;;3.75;;
1545;SDS011;766;51.502;9.752;2023-06-10T07:47:42;4.13;;;3.40;;
1545;SDS011;766;51.502;9.752;2023-06-10T07:50:12;5.60;;;3.40;;
1545;SDS011;766;51.502;9.752;2023-06-10T07:52:40;7.47;;;3.50;;
1545;SDS011;766;51.502;9.752;2023-06-10T07:55:08;4.78;;;3.58;;
1545;SDS011;766;51.502;9.752;2023-06-10T07:57:37;6.93;;;3.70;;
1545;SDS011;766;51.502;9.752;2023-06-10T08:00:06;5.53;;;3.60;;
1545;SDS011;766;51.502;9.752;2023-06-10T08:02:35;4.13;;;3.50;;
1545;SDS011;766;51.502;9.752;2023-06-10T08:05:04;6.80;;;3.42;;
1545;SDS011;766;51.502;9.752;2023-06-10T08:07:35;7.80;;;3.45;;
1545;SDS011;766;51.502;9.752;2023-06-10T08:10:03;4.75;;;3.50;;
1545;SDS011;766;51.502;9.752;2023-06-10T08:12:32;6.22;;;3.65;;
1545;SDS011;766;51.502;9.752;2023-06-10T08:15:03;4.70;;;3.70;;
1545;SDS011;766;51.502;9.752;2023-06-10T08:17:33;7.60;;;3.67;;
1545;SDS011;766;51.502;9.752;2023-06-10T08:20:01;5.57;;;3.95;;
1545;SDS011;766;51.502;9.752;2023-06-10T08:22:30;5.82;;;4.00;;
1545;SDS011;766;51.502;9.752;2023-06-10T08:25:01;4.68;;;3.83;;
1545;SDS011;766;51.502;9.752;2023-06-10T08:27:30;4.57;;;3.67;;
1545;SDS011;766;51.502;9.752;2023-06-10T08:29:58;4.93;;;3.90;;
1545;SDS011;766;51.502;9.752;2023-06-10T08:32:27;8.70;;;4.20;;
1545;SDS011;766;51.502;9.752;2023-06-10T08:34:55;6.43;;;3.50;;
1545;SDS011;766;51.502;9.752;2023-06-10T08:37:24;4.13;;;3.45;;
1545;SDS011;766;51.502;9.752;2023-06-10T08:39:55;6.07;;;3.97;;
1545;SDS011;766;51.502;9.752;2023-06-10T08:42:28;6.68;;;4.30;;
1545;SDS011;766;51.502;9.752;2023-06-10T08:45:16;5.65;;;4.00;;
1545;SDS011;766;51.502;9.752;2023-06-10T08:47:45;6.68;;;4.13;;
1545;SDS011;766;51.502;9.752;2023-06-10T08:50:16;9.15;;;4.53;;
1545;SDS011;766;51.502;9.752;2023-06-10T08:52:46;6.20;;;3.90;;
1545;SDS011;766;51.502;9.752;2023-06-10T08:55:18;6.35;;;4.05;;
1545;SDS011;766;51.502;9.752;2023-06-10T08:58:00;8.95;;;4.15;;
1545;SDS011;766;51.502;9.752;2023-06-10T09:00:30;5.40;;;3.67;;
1545;SDS011;766;51.502;9.752;2023-06-10T09:02:59;4.00;;;3.70;;
1545;SDS011;766;51.502;9.752;2023-06-10T09:05:32;5.88;;;4.25;;
1545;SDS011;766;51.502;9.752;2023-06-10T09:08:03;4.95;;;3.85;;
1545;SDS011;766;51.502;9.752;2023-06-10T09:10:33;4.55;;;3.90;;
1545;SDS011;766;51.502;9.752;2023-06-10T09:13:03;7.03;;;4.13;;
1545;SDS011;766;51.502;9.752;2023-06-10T09:15:33;7.95;;;3.70;;
1545;SDS011;766;51.502;9.752;2023-06-10T09:18:01;5.05;;;4.55;;
1545;SDS011;766;51.502;9.752;2023-06-10T09:20:31;5.82;;;3.97;;
1545;SDS011;766;51.502;9.752;2023-06-10T09:23:00;6.90;;;4.05;;
1545;SDS011;766;51.502;9.752;2023-06-10T09:25:36;4.45;;;4.00;;
1545;SDS011;766;51.502;9.752;2023-06-10T09:28:08;5.30;;;4.47;;
1545;SDS011;766;51.502;9.752;2023-06-10T09:30:41;5.30;;;3.97;;
1545;SDS011;766;51.502;9.752;2023-06-10T09:33:10;6.32;;;4.25;;
1545;SDS011;766;51.502;9.752;2023-06-10T09:35:45;9.25;;;4.63;;
1545;SDS011;766;51.502;9.752;2023-06-10T09:38:15;5.88;;;4.05;;
1545;SDS011;766;51.502;9.752;2023-06-10T09:40:50;6.35;;;4.10;;
1545;SDS011;766;51.502;9.752;2023-06-10T09:43:20;9.07;;;4.40;;
1545;SDS011;766;51.502;9.752;2023-06-10T09:45:49;5.60;;;4.32;;
1545;SDS011;766;51.502;9.752;2023-06-10T09:48:19;13.43;;;4.25;;
1545;SDS011;766;51.502;9.752;2023-06-10T09:50:48;5.78;;;4.55;;
1545;SDS011;766;51.502;9.752;2023-06-10T09:53:18;6.75;;;4.28;;
1545;SDS011;766;51.502;9.752;2023-06-10T09:55:46;6.32;;;4.20;;
1545;SDS011;766;51.502;9.752;2023-06-10T09:58:14;10.02;;;4.60;;
1545;SDS011;766;51.502;9.752;2023-06-10T10:00:44;11.60;;;4.68;;
1545;SDS011;766;51.502;9.752;2023-06-10T10:03:22;5.53;;;4.72;;
1545;SDS011;766;51.502;9.752;2023-06-10T10:05:55;5.97;;;4.10;;
1545;SDS011;766;51.502;9.752;2023-06-10T10:08:27;10.63;;;4.40;;
1545;SDS011;766;51.502;9.752;2023-06-10T10:10:56;5.80;;;4.47;;
1545;SDS011;766;51.502;9.752;2023-06-10T10:13:25;7.80;;;4.10;;
1545;SDS011;766;51.502;9.752;2023-06-10T10:15:57;8.48;;;4.68;;
1545;SDS011;766;51.502;9.752;2023-06-10T10:18:29;11.48;;;4.25;;
1545;SDS011;766;51.502;9.752;2023-06-10T10:21:00;4.95;;;3.80;;
1545;SDS011;766;51.502;9.752;2023-06-10T10:23:32;11.73;;;4.75;;
1545;SDS011;766;51.502;9.752;2023-06-10T10:26:07;6.97;;;4.65;;
1545;SDS011;766;51.502;9.752;2023-06-10T10:28:41;8.48;;;4.55;;
1545;SDS011;766;51.502;9.752;2023-06-10T10:31:20;8.52;;;4.70;;
1545;SDS011;766;51.502;9.752;2023-06-10T10:33:51;6.25;;;4.28;;
1545;SDS011;766;51.502;9.752;2023-06-10T10:36:25;7.43;;;4.35;;
1545;SDS011;766;51.502;9.752;2023-06-10T10:38:54;7.10;;;4.70;;
1545;SDS011;766;51.502;9.752;2023-06-10T10:41:28;12.90;;;4.43;;
1545;SDS011;766;51.502;9.752;2023-06-10T10:43:57;6.88;;;4.50;;
1545;SDS011;766;51.502;9.752;2023-06-10T10:46:34;8.50;;;4.20;;
1545;SDS011;766;51.502;9.752;2023-06-10T10:49:10;12.38;;;4.57;;
1545;SDS011;766;51.502;9.752;2023-06-10T10:54:28;6.85;;;4.50;;
1545;SDS011;766;51.502;9.752;2023-06-10T10:57:12;4.85;;;4.15;;
1545;SDS011;766;51.502;9.752;2023-06-10T10:59:46;7.55;;;4.00;;
1545;SDS011;766;51.502;9.752;2023-06-10T11:02:39;11.40;;;5.15;;
1545;SDS011;766;51.502;9.752;2023-06-10T11:05:13;8.50;;;4.90;;
1545;SDS011;766;51.502;9.752;2023-06-10T11:07:51;6.35;;;4.60;;
1545;SDS011;766;51.502;9.752;2023-06-10T11:10:28;6.07;;;4.53;;
1545;SDS011;766;51.502;9.752;2023-06-10T11:12:58;7.03;;;4.72;;
1545;SDS011;766;51.502;9.752;2023-06-10T11:15:27;7.05;;;4.25;;
1545;SDS011;766;51.502;9.752;2023-06-10T11:18:07;8.60;;;4.25;;
1545;SDS011;766;51.502;9.752;2023-06-10T11:20:54;5.55;;;4.53;;
1545;SDS011;766;51.502;9.752;2023-06-10T11:26:21;8.70;;;4.03;;
1545;SDS011;766;51.502;9.752;2023-06-10T11:29:08;5.90;;;4.25;;
1545;SDS011;766;51.502;9.752;2023-06-10T11:31:41;7.75;;;4.75;;
1545;SDS011;766;51.502;9.752;2023-06-10T11:34:12;9.45;;;3.92;;
1545;SDS011;766;51.502;9.752;2023-06-10T11:36:44;6.15;;;4.25;;
1545;SDS011;766;51.502;9.752;2023-06-10T11:39:28;5.88;;;4.25;;
1545;SDS011;766;51.502;9.752;2023-06-10T11:42:00;6.32;;;4.47;;
1545;SDS011;766;51.502;9.752;2023-06-10T11:44:36;5.72;;;4.00;;
1545;SDS011;766;51.502;9.752;2023-06-10T11:47:04;8.38;;;4.30;;
1545;SDS011;766;51.502;9.752;2023-06-10T11:49:35;6.63;;;4.13;;
1545;SDS011;766;51.502;9.752;2023-06-10T11:52:04;6.28;;;4.07;;
1545;SDS011;766;51.502;9.752;2023-06-10T11:54:32;6.72;;;4.28;;
1545;SDS011;766;51.502;9.752;2023-06-10T11:57:01;6.65;;;4.15;;
1545;SDS011;766;51.502;9.752;2023-06-10T11:59:30;5.65;;;4.38;;
1545;SDS011;766;51.502;9.752;2023-06-10T12:01:58;5.70;;;4.55;;
1545;SDS011;766;51.502;9.752;2023-06-10T12:04:27;6.15;;;4.07;;
1545;SDS011;766;51.502;9.752;2023-06-10T12:06:56;7.20;;;4.22;;
1545;SDS011;766;51.502;9.752;2023-06-10T12:09:25;7.28;;;4.15;;
1545;SDS011;766;51.502;9.752;2023-06-10T12:12:03;8.45;;;4.05;;
1545;SDS011;766;51.502;9.752;2023-06-10T12:14:54;6.35;;;3.97;;
1545;SDS011;766;51.502;9.752;2023-06-10T12:17:35;8.75;;;4.47;;
1545;SDS011;766;51.502;9.752;2023-06-10T12:20:05;7.25;;;4.25;;
1545;SDS011;766;51.502;9.752;2023-06-10T12:22:40;6.32;;;4.78;;
1545;SDS011;766;51.502;9.752;2023-06-10T12:25:10;8.05;;;4.60;;
1545;SDS011;766;51.502;9.752;2023-06-10T12:27:49;6.85;;;4.88;;
1545;SDS011;766;51.502;9.752;2023-06-10T12:30:19;6.80;;;4.55;;
1545;SDS011;766;51.502;9.752;2023-06-10T12:32:49;5.70;;;4.95;;
1545;SDS011;766;51.502;9.752;2023-06-10T12:35:19;5.85;;;4.82;;
1545;SDS011;766;51.502;9.752;2023-06-10T12:37:55;6.90;;;4.53;;
1545;SDS011;766;51.502;9.752;2023-06-10T12:40:26;11.77;;;5.00;;
1545;SDS011;766;51.502;9.752;2023-06-10T12:42:56;7.15;;;4.63;;
1545;SDS011;766;51.502;9.752;2023-06-10T12:45:28;7.60;;;5.00;;
1545;SDS011;766;51.502;9.752;2023-06-10T12:48:07;6.00;;;4.20;;
1545;SDS011;766;51.502;9.752;2023-06-10T12:50:37;6.65;;;4.45;;
1545;SDS011;766;51.502;9.752;2023-06-10T12:53:08;5.35;;;4.38;;
1545;SDS011;766;51.502;9.752;2023-06-10T12:55:37;8.73;;;4.90;;
1545;SDS011;766;51.502;9.752;2023-06-10T12:58:06;9.60;;;5.80;;
1545;SDS011;766;51.502;9.752;2023-06-10T13:00:34;6.85;;;4.53;;
1545;SDS011;766;51.502;9.752;2023-06-10T13:03:03;7.50;;;5.13;;
1545;SDS011;766;51.502;9.752;2023-06-10T13:05:34;7.90;;;5.05;;
1545;SDS011;766;51.502;9.752;2023-06-10T13:08:05;6.82;;;4.80;;
1545;SDS011;766;51.502;9.752;2023-06-10T13:10:36;8.40;;;4.53;;
1545;SDS011;766;51.502;9.752;2023-06-10T13:13:04;4.93;;;4.43;;
1545;SDS011;766;51.502;9.752;2023-06-10T13:15:36;7.13;;;4.80;;
1545;SDS011;766;51.502;9.752;2023-06-10T13:18:09;7.70;;;4.65;;
1545;SDS011;766;51.502;9.752;2023-06-10T13:20:37;9.25;;;4.10;;
1545;SDS011;766;51.502;9.752;2023-06-10T13:23:07;5.65;;;4.22;;
1545;SDS011;766;51.502;9.752;2023-06-10T13:25:35;6.70;;;4.13;;
1545;SDS011;766;51.502;9.752;2023-06-10T13:28:04;7.82;;;4.35;;
1545;SDS011;766;51.502;9.752;2023-06-10T13:30:32;5.45;;;3.85;;
1545;SDS011;766;51.502;9.752;2023-06-10T13:33:01;7.13;;;4.15;;
1545;SDS011;766;51.502;9.752;2023-06-10T13:35:30;6.93;;;4.13;;
1545;SDS011;766;51.502;9.752;2023-06-10T13:37:58;4.95;;;4.18;;
1545;SDS011;766;51.502;9.752;2023-06-10T13:51:28;7.22;;;4.10;;
1545;SDS011;766;51.502;9.752;2023-06-10T13:53:57;6.60;;;4.05;;
1545;SDS011;766;51.502;9.752;2023-06-10T13:56:25;4.32;;;3.80;;
1545;SDS011;766;51.502;9.752;2023-06-10T13:58:55;7.03;;;4.00;;
1545;SDS011;766;51.502;9.752;2023-06-10T14:01:24;5.72;;;4.05;;
1545;SDS011;766;51.502;9.752;2023-06-10T14:03:52;5.57;;;3.63;;
1545;SDS011;766;51.502;9.752;2023-06-10T14:06:21;4.97;;;4.00;;
1545;SDS011;766;51.502;9.752;2023-06-10T14:08:51;8.35;;;3.88;;
1545;SDS011;766;51.502;9.752;2023-06-10T14:11:21;6.63;;;4.20;;
1545;SDS011;766;51.502;9.752;2023-06-10T14:13:49;6.65;;;3.70;;
1545;SDS011;766;51.502;9.752;2023-06-10T14:16:17;4.25;;;3.85;;
1545;SDS011;766;51.502;9.752;2023-06-10T14:18:46;4.70;;;3.78;;
1545;SDS011;766;51.502;9.752;2023-06-10T14:21:16;6.95;;;4.05;;
1545;SDS011;766;51.502;9.752;2023-06-10T14:23:44;5.95;;;4.32;;
1545;SDS011;766;51.502;9.752;2023-06-10T14:26:16;5.55;;;4.10;;
1545;SDS011;766;51.502;9.752;2023-06-10T14:28:46;4.72;;;4.20;;
1545;SDS011;766;51.502;9.752;2023-06-10T14:31:14;5.80;;;4.10;;
1545;SDS011;766;51.502;9.752;2023-06-10T14:33:42;7.78;;;4.18;;
1545;SDS011;766;51.502;9.752;2023-06-10T14:36:11;6.38;;;3.90;;
1545;SDS011;766;51.502;9.752;2023-06-10T14:38:39;11.23;;;3.88;;
1545;SDS011;766;51.502;9.752;2023-06-10T14:41:08;6.00;;;4.65;;
1545;SDS011;766;51.502;9.752;2023-06-10T14:43:38;6.20;;;3.97;;
1545;SDS011;766;51.502;9.752;2023-06-10T14:46:06;7.68;;;4.05;;
1545;SDS011;766;51.502;9.752;2023-06-10T14:48:34;6.85;;;4.30;;
1545;SDS011;766;51.502;9.752;2023-06-10T14:51:03;7.18;;;3.92;;
1545;SDS011;766;51.502;9.752;2023-06-10T14:53:31;6.18;;;4.80;;
1545;SDS011;766;51.502;9.752;2023-06-10T14:56:00;6.30;;;3.92;;
1545;SDS011;766;51.502;9.752;2023-06-10T14:58:28;5.68;;;4.10;;
1545;SDS011;766;51.502;9.752;2023-06-10T15:00:59;4.82;;;4.30;;
1545;SDS011;766;51.502;9.752;2023-06-10T15:03:27;7.55;;;4.25;;
1545;SDS011;766;51.502;9.752;2023-06-10T15:05:55;5.57;;;4.53;;
1545;SDS011;766;51.502;9.752;2023-06-10T15:08:24;5.72;;;4.03;;
1545;SDS011;766;51.502;9.752;2023-06-10T15:10:52;7.78;;;4.22;;
1545;SDS011;766;51.502;9.752;2023-06-10T15:13:21;7.72;;;4.43;;
1545;SDS011;766;51.502;9.752;2023-06-10T15:15:49;7.05;;;4.40;;
1545;SDS011;766;51.502;9.752;2023-06-10T15:18:20;6.07;;;4.07;;
1545;SDS011;766;51.502;9.752;2023-06-10T15:20:49;7.45;;;4.55;;
1545;SDS011;766;51.502;9.752;2023-06-10T15:23:17;6.03;;;4.60;;
1545;SDS011;766;51.502;9.752;2023-06-10T15:25:46;4.85;;;4.10;;
1545;SDS011;766;51.502;9.752;2023-06-10T15:28:14;6.75;;;4.28;;
1545;SDS011;766;51.502;9.752;2023-06-10T15:30:43;4.88;;;4.38;;
1545;SDS011;766;51.502;9.752;2023-06-10T15:33:11;5.43;;;4.43;;
1545;SDS011;766;51.502;9.752;2023-06-10T15:35:41;5.20;;;4.20;;
1545;SDS011;766;51.502;9.752;2023-06-10T15:38:09;6.28;;;4.15;;
1545;SDS011;766;51.502;9.752;2023-06-10T15:40:39;7.03;;;4.82;;
1545;SDS011;766;51.502;9.752;2023-06-10T15:43:08;6.57;;;4.28;;
1545;SDS011;766;51.502;9.752;2023-06-10T15:45:36;4.88;;;4.10;;
1545;SDS011;766;51.502;9.752;2023-06-10T15:48:05;7.20;;;4.25;;
1545;SDS011;766;51.502;9.752;2023-06-10T15:50:33;4.75;;;3.88;;
1545;SDS011;766;51.502;9.752;2023-06-10T15:53:03;8.82;;;4.55;;
1545;SDS011;766;51.502;9.752;2023-06-10T15:55:32;5.07;;;4.25;;
1545;SDS011;766;51.502;9.752;2023-06-10T15:58:00;5.53;;;4.70;;
1545;SDS011;766;51.502;9.752;2023-06-10T16:00:30;4.72;;;4.30;;
1545;SDS011;766;51.502;9.752;2023-06-10T16:02:58;6.20;;;4.20;;
1545;SDS011;766;51.502;9.752;2023-06-10T16:05:28;6.32;;;4.43;;